sensor_id;sensor_type;location;lat;lon;timestamp;P1;durP1;ratioP1;P2;durP2;ratioP2
549;SDS011;20066;48.764;9.176;2022-12-29T00:00:22;6.15;;;2.75;;
549;SDS011;20066;48.764;9.176;2022-12-29T00:02:51;5.05;;;2.38;;
549;SDS011;20066;48.764;9.176;2022-12-29T00:05:19;5.13;;;2.90;;
549;SDS011;20066;48.764;9.176;2022-12-29T00:07:46;5.75;;;3.10;;
549;SDS011;20066;48.764;9.176;2022-12-29T00:10:14;12.23;;;2.80;;
549;SDS011;20066;48.764;9.176;2022-12-29T00:12:42;6.40;;;2.70;;
549;SDS011;20066;48.764;9.176;2022-12-29T00:15:27;9.52;;;2.65;;
549;SDS011;20066;48.764;9.176;2022-12-29T00:18:05;6.40;;;2.80;;
549;SDS011;20066;48.764;9.176;2022-12-29T00:20:34;4.88;;;2.67;;
549;SDS011;20066;48.764;9.176;2022-12-29T00:23:19;5.82;;;2.53;;
549;SDS011;20066;48.764;9.176;2022-12-29T00:26:08;6.72;;;2.10;;
549;SDS011;20066;48.764;9.176;2022-12-29T00:28:58;3.17;;;1.65;;
549;SDS011;20066;48.764;9.176;2022-12-29T00:31:43;4.85;;;2.35;;
549;SDS011;20066;48.764;9.176;2022-12-29T00:34:30;7.50;;;2.33;;
549;SDS011;20066;48.764;9.176;2022-12-29T00:37:15;4.68;;;1.67;;
549;SDS011;20066;48.764;9.176;2022-12-29T00:39:43;8.23;;;2.63;;
549;SDS011;20066;48.764;9.176;2022-12-29T00:42:28;7.00;;;2.17;;
549;SDS011;20066;48.764;9.176;2022-12-29T00:45:14;8.55;;;2.50;;
549;SDS011;20066;48.764;9.176;2022-12-29T00:47:43;3.53;;;2.30;;
549;SDS011;20066;48.764;9.176;2022-12-29T00:50:12;5.53;;;2.47;;
549;SDS011;20066;48.764;9.176;2022-12-29T00:52:39;3.90;;;1.80;;
549;SDS011;20066;48.764;9.176;2022-12-29T00:55:07;6.40;;;2.63;;
549;SDS011;20066;48.764;9.176;2022-12-29T00:57:34;4.70;;;2.03;;
549;SDS011;20066;48.764;9.176;2022-12-29T01:00:02;4.25;;;1.60;;
549;SDS011;20066;48.764;9.176;2022-12-29T01:02:30;4.53;;;1.85;;
549;SDS011;20066;48.764;9.176;2022-12-29T01:04:58;3.70;;;1.80;;
549;SDS011;20066;48.764;9.176;2022-12-29T01:07:27;3.80;;;1.70;;
549;SDS011;20066;48.764;9.176;2022-12-29T01:09:55;4.82;;;1.25;;
549;SDS011;20066;48.764;9.176;2022-12-29T01:12:37;8.13;;;1.67;;
549;SDS011;20066;48.764;9.176;2022-12-29T01:15:08;5.03;;;1.70;;
549;SDS011;20066;48.764;9.176;2022-12-29T01:17:38;3.35;;;1.70;;
549;SDS011;20066;48.764;9.176;2022-12-29T01:20:06;3.95;;;1.65;;
549;SDS011;20066;48.764;9.176;2022-12-29T01:22:35;3.90;;;1.50;;
549;SDS011;20066;48.764;9.176;2022-12-29T01:25:04;4.75;;;1.80;;
549;SDS011;20066;48.764;9.176;2022-12-29T01:27:32;4.05;;;1.33;;
549;SDS011;20066;48.764;9.176;2022-12-29T01:30:00;2.70;;;1.50;;
549;SDS011;20066;48.764;9.176;2022-12-29T01:32:28;5.10;;;1.48;;
549;SDS011;20066;48.764;9.176;2022-12-29T01:34:55;3.42;;;1.33;;
549;SDS011;20066;48.764;9.176;2022-12-29T01:37:23;3.80;;;1.27;;
549;SDS011;20066;48.764;9.176;2022-12-29T01:39:53;6.47;;;2.00;;
549;SDS011;20066;48.764;9.176;2022-12-29T01:42:22;2.65;;;1.40;;
549;SDS011;20066;48.764;9.176;2022-12-29T01:44:53;3.78;;;1.40;;
549;SDS011;20066;48.764;9.176;2022-12-29T01:47:33;3.65;;;1.30;;
549;SDS011;20066;48.764;9.176;2022-12-29T01:50:06;6.75;;;1.77;;
549;SDS011;20066;48.764;9.176;2022-12-29T01:52:44;4.75;;;1.50;;
549;SDS011;20066;48.764;9.176;2022-12-29T01:55:23;3.83;;;1.40;;
549;SDS011;20066;48.764;9.176;2022-12-29T01:57:52;4.47;;;1.65;;
549;SDS011;20066;48.764;9.176;2022-12-29T02:00:23;4.63;;;1.45;;
549;SDS011;20066;48.764;9.176;2022-12-29T02:02:51;4.68;;;1.83;;
549;SDS011;20066;48.764;9.176;2022-12-29T02:05:23;3.45;;;1.70;;
549;SDS011;20066;48.764;9.176;2022-12-29T02:07:56;4.20;;;1.58;;
549;SDS011;20066;48.764;9.176;2022-12-29T02:10:26;6.88;;;1.55;;
549;SDS011;20066;48.764;9.176;2022-12-29T02:12:57;3.30;;;1.80;;
549;SDS011;20066;48.764;9.176;2022-12-29T02:15:27;2.78;;;1.35;;
549;SDS011;20066;48.764;9.176;2022-12-29T02:18:07;3.08;;;1.23;;
549;SDS011;20066;48.764;9.176;2022-12-29T02:27:10;2.00;;;1.23;;
549;SDS011;20066;48.764;9.176;2022-12-29T02:30:04;4.93;;;1.60;;
549;SDS011;20066;48.764;9.176;2022-12-29T02:32:38;6.32;;;2.10;;
549;SDS011;20066;48.764;9.176;2022-12-29T02:35:14;4.30;;;1.70;;
549;SDS011;20066;48.764;9.176;2022-12-29T02:37:49;3.03;;;1.63;;
549;SDS011;20066;48.764;9.176;2022-12-29T02:40:28;4.18;;;1.58;;
549;SDS011;20066;48.764;9.176;2022-12-29T02:43:05;5.40;;;1.50;;
549;SDS011;20066;48.764;9.176;2022-12-29T02:45:43;12.45;;;1.42;;
549;SDS011;20066;48.764;9.176;2022-12-29T02:48:21;4.82;;;1.40;;
549;SDS011;20066;48.764;9.176;2022-12-29T02:50:57;4.82;;;1.50;;
549;SDS011;20066;48.764;9.176;2022-12-29T02:53:28;2.80;;;1.42;;
549;SDS011;20066;48.764;9.176;2022-12-29T02:56:15;3.88;;;1.30;;
549;SDS011;20066;48.764;9.176;2022-12-29T02:58:43;4.65;;;1.40;;
549;SDS011;20066;48.764;9.176;2022-12-29T03:01:16;6.43;;;2.95;;
549;SDS011;20066;48.764;9.176;2022-12-29T03:03:58;4.57;;;1.40;;
549;SDS011;20066;48.764;9.176;2022-12-29T03:06:40;2.85;;;1.20;;
549;SDS011;20066;48.764;9.176;2022-12-29T03:09:21;6.60;;;1.30;;
549;SDS011;20066;48.764;9.176;2022-12-29T03:11:59;1.85;;;1.20;;
549;SDS011;20066;48.764;9.176;2022-12-29T03:14:39;2.15;;;1.15;;
549;SDS011;20066;48.764;9.176;2022-12-29T03:17:35;3.55;;;1.20;;
549;SDS011;20066;48.764;9.176;2022-12-29T03:20:13;3.63;;;1.15;;
549;SDS011;20066;48.764;9.176;2022-12-29T03:22:46;7.40;;;1.63;;
549;SDS011;20066;48.764;9.176;2022-12-29T03:25:20;2.50;;;0.97;;
549;SDS011;20066;48.764;9.176;2022-12-29T03:27:51;8.90;;;1.42;;
549;SDS011;20066;48.764;9.176;2022-12-29T03:30:23;3.53;;;1.27;;
549;SDS011;20066;48.764;9.176;2022-12-29T03:32:54;4.23;;;1.30;;
549;SDS011;20066;48.764;9.176;2022-12-29T03:35:27;6.17;;;1.13;;
549;SDS011;20066;48.764;9.176;2022-12-29T03:37:58;3.88;;;1.20;;
549;SDS011;20066;48.764;9.176;2022-12-29T03:40:30;2.50;;;1.17;;
549;SDS011;20066;48.764;9.176;2022-12-29T03:43:00;2.77;;;1.30;;
549;SDS011;20066;48.764;9.176;2022-12-29T03:45:29;3.50;;;1.63;;
549;SDS011;20066;48.764;9.176;2022-12-29T03:47:57;3.43;;;1.10;;
549;SDS011;20066;48.764;9.176;2022-12-29T03:55:57;3.20;;;1.13;;
549;SDS011;20066;48.764;9.176;2022-12-29T03:58:25;2.40;;;1.10;;
549;SDS011;20066;48.764;9.176;2022-12-29T04:00:53;7.13;;;1.10;;
549;SDS011;20066;48.764;9.176;2022-12-29T04:03:21;6.63;;;1.30;;
549;SDS011;20066;48.764;9.176;2022-12-29T04:05:48;3.80;;;1.03;;
549;SDS011;20066;48.764;9.176;2022-12-29T04:08:16;2.60;;;1.03;;
549;SDS011;20066;48.764;9.176;2022-12-29T04:10:44;1.93;;;1.20;;
549;SDS011;20066;48.764;9.176;2022-12-29T04:13:13;2.67;;;1.03;;
549;SDS011;20066;48.764;9.176;2022-12-29T04:15:42;3.07;;;1.00;;
549;SDS011;20066;48.764;9.176;2022-12-29T04:18:10;4.03;;;1.20;;
549;SDS011;20066;48.764;9.176;2022-12-29T04:20:38;1.90;;;1.00;;
549;SDS011;20066;48.764;9.176;2022-12-29T04:23:23;5.87;;;1.30;;
549;SDS011;20066;48.764;9.176;2022-12-29T04:25:51;24.97;;;8.67;;
549;SDS011;20066;48.764;9.176;2022-12-29T04:28:20;13.30;;;6.00;;
549;SDS011;20066;48.764;9.176;2022-12-29T04:30:48;6.80;;;1.70;;
549;SDS011;20066;48.764;9.176;2022-12-29T04:33:16;2.63;;;1.17;;
549;SDS011;20066;48.764;9.176;2022-12-29T04:35:44;3.40;;;1.30;;
549;SDS011;20066;48.764;9.176;2022-12-29T04:38:13;3.20;;;1.10;;
549;SDS011;20066;48.764;9.176;2022-12-29T04:40:42;3.60;;;1.13;;
549;SDS011;20066;48.764;9.176;2022-12-29T04:43:10;5.20;;;1.30;;
549;SDS011;20066;48.764;9.176;2022-12-29T04:45:39;2.43;;;1.20;;
549;SDS011;20066;48.764;9.176;2022-12-29T04:48:10;2.33;;;1.30;;
549;SDS011;20066;48.764;9.176;2022-12-29T04:50:38;4.53;;;1.20;;
549;SDS011;20066;48.764;9.176;2022-12-29T04:53:06;2.83;;;1.10;;
549;SDS011;20066;48.764;9.176;2022-12-29T04:55:34;2.53;;;1.43;;
549;SDS011;20066;48.764;9.176;2022-12-29T04:58:01;2.80;;;1.67;;
549;SDS011;20066;48.764;9.176;2022-12-29T05:00:30;2.13;;;1.03;;
549;SDS011;20066;48.764;9.176;2022-12-29T05:02:59;3.80;;;1.30;;
549;SDS011;20066;48.764;9.176;2022-12-29T05:05:27;2.30;;;1.40;;
549;SDS011;20066;48.764;9.176;2022-12-29T05:07:55;3.70;;;1.35;;
549;SDS011;20066;48.764;9.176;2022-12-29T05:10:23;3.53;;;1.33;;
549;SDS011;20066;48.764;9.176;2022-12-29T05:12:51;4.57;;;1.33;;
549;SDS011;20066;48.764;9.176;2022-12-29T05:15:19;9.10;;;1.57;;
549;SDS011;20066;48.764;9.176;2022-12-29T05:17:47;5.07;;;1.20;;
549;SDS011;20066;48.764;9.176;2022-12-29T05:20:16;3.00;;;1.53;;
549;SDS011;20066;48.764;9.176;2022-12-29T05:22:44;2.77;;;1.37;;
549;SDS011;20066;48.764;9.176;2022-12-29T05:25:11;3.27;;;1.37;;
549;SDS011;20066;48.764;9.176;2022-12-29T05:27:39;2.30;;;1.10;;
549;SDS011;20066;48.764;9.176;2022-12-29T05:30:07;2.73;;;1.53;;
549;SDS011;20066;48.764;9.176;2022-12-29T05:32:36;4.47;;;1.67;;
549;SDS011;20066;48.764;9.176;2022-12-29T05:35:04;4.33;;;1.50;;
549;SDS011;20066;48.764;9.176;2022-12-29T05:37:34;3.97;;;1.60;;
549;SDS011;20066;48.764;9.176;2022-12-29T05:40:02;3.23;;;1.73;;
549;SDS011;20066;48.764;9.176;2022-12-29T05:42:30;5.13;;;1.47;;
549;SDS011;20066;48.764;9.176;2022-12-29T05:44:58;2.20;;;1.43;;
549;SDS011;20066;48.764;9.176;2022-12-29T05:47:26;2.57;;;1.50;;
549;SDS011;20066;48.764;9.176;2022-12-29T05:49:57;2.13;;;1.30;;
549;SDS011;20066;48.764;9.176;2022-12-29T05:52:24;2.70;;;1.30;;
549;SDS011;20066;48.764;9.176;2022-12-29T05:54:53;4.20;;;1.50;;
549;SDS011;20066;48.764;9.176;2022-12-29T05:57:21;2.67;;;1.40;;
549;SDS011;20066;48.764;9.176;2022-12-29T05:59:49;2.50;;;1.40;;
549;SDS011;20066;48.764;9.176;2022-12-29T06:02:16;5.40;;;1.80;;
549;SDS011;20066;48.764;9.176;2022-12-29T06:04:44;4.10;;;1.63;;
549;SDS011;20066;48.764;9.176;2022-12-29T06:07:12;2.30;;;1.30;;
549;SDS011;20066;48.764;9.176;2022-12-29T06:09:40;2.30;;;1.30;;
549;SDS011;20066;48.764;9.176;2022-12-29T06:12:09;3.80;;;1.63;;
549;SDS011;20066;48.764;9.176;2022-12-29T06:14:37;2.30;;;1.17;;
549;SDS011;20066;48.764;9.176;2022-12-29T06:17:04;4.67;;;1.63;;
549;SDS011;20066;48.764;9.176;2022-12-29T06:19:32;3.50;;;1.17;;
549;SDS011;20066;48.764;9.176;2022-12-29T06:22:00;3.70;;;1.33;;
549;SDS011;20066;48.764;9.176;2022-12-29T06:24:28;3.37;;;1.47;;
549;SDS011;20066;48.764;9.176;2022-12-29T06:26:56;2.60;;;1.17;;
549;SDS011;20066;48.764;9.176;2022-12-29T06:29:25;2.10;;;1.30;;
549;SDS011;20066;48.764;9.176;2022-12-29T06:31:52;12.57;;;1.48;;
549;SDS011;20066;48.764;9.176;2022-12-29T06:34:24;5.13;;;1.27;;
549;SDS011;20066;48.764;9.176;2022-12-29T06:36:51;3.77;;;1.40;;
549;SDS011;20066;48.764;9.176;2022-12-29T06:39:19;3.40;;;1.60;;
549;SDS011;20066;48.764;9.176;2022-12-29T06:41:47;8.40;;;1.70;;
549;SDS011;20066;48.764;9.176;2022-12-29T06:44:15;6.70;;;1.27;;
549;SDS011;20066;48.764;9.176;2022-12-29T06:46:44;3.70;;;1.30;;
549;SDS011;20066;48.764;9.176;2022-12-29T06:49:11;5.37;;;1.80;;
549;SDS011;20066;48.764;9.176;2022-12-29T06:51:39;4.63;;;1.70;;
549;SDS011;20066;48.764;9.176;2022-12-29T06:54:07;2.97;;;1.67;;
549;SDS011;20066;48.764;9.176;2022-12-29T06:56:35;3.63;;;1.20;;
549;SDS011;20066;48.764;9.176;2022-12-29T06:59:02;4.15;;;1.60;;
549;SDS011;20066;48.764;9.176;2022-12-29T07:01:31;3.33;;;1.15;;
549;SDS011;20066;48.764;9.176;2022-12-29T07:04:00;3.05;;;1.45;;
549;SDS011;20066;48.764;9.176;2022-12-29T07:06:28;4.35;;;2.13;;
549;SDS011;20066;48.764;9.176;2022-12-29T07:08:56;13.53;;;1.50;;
549;SDS011;20066;48.764;9.176;2022-12-29T07:11:23;4.10;;;2.05;;
549;SDS011;20066;48.764;9.176;2022-12-29T07:13:51;5.20;;;1.48;;
549;SDS011;20066;48.764;9.176;2022-12-29T07:16:19;4.37;;;1.60;;
549;SDS011;20066;48.764;9.176;2022-12-29T07:18:47;2.97;;;1.50;;
549;SDS011;20066;48.764;9.176;2022-12-29T07:21:16;5.90;;;1.50;;
549;SDS011;20066;48.764;9.176;2022-12-29T07:23:44;2.80;;;1.60;;
549;SDS011;20066;48.764;9.176;2022-12-29T07:26:12;6.57;;;1.40;;
549;SDS011;20066;48.764;9.176;2022-12-29T07:28:41;4.17;;;1.80;;
549;SDS011;20066;48.764;9.176;2022-12-29T07:31:12;4.13;;;1.10;;
549;SDS011;20066;48.764;9.176;2022-12-29T07:33:41;4.78;;;1.55;;
549;SDS011;20066;48.764;9.176;2022-12-29T07:36:10;4.80;;;1.52;;
549;SDS011;20066;48.764;9.176;2022-12-29T07:38:40;2.83;;;1.55;;
549;SDS011;20066;48.764;9.176;2022-12-29T07:41:08;4.88;;;1.60;;
549;SDS011;20066;48.764;9.176;2022-12-29T07:43:36;2.15;;;1.27;;
549;SDS011;20066;48.764;9.176;2022-12-29T07:46:04;2.55;;;1.45;;
549;SDS011;20066;48.764;9.176;2022-12-29T07:48:32;2.83;;;1.40;;
549;SDS011;20066;48.764;9.176;2022-12-29T07:51:02;4.57;;;1.67;;
549;SDS011;20066;48.764;9.176;2022-12-29T07:53:29;3.92;;;1.55;;
549;SDS011;20066;48.764;9.176;2022-12-29T07:55:58;2.63;;;1.60;;
549;SDS011;20066;48.764;9.176;2022-12-29T07:58:26;3.63;;;1.63;;
549;SDS011;20066;48.764;9.176;2022-12-29T08:00:54;4.97;;;1.30;;
549;SDS011;20066;48.764;9.176;2022-12-29T08:03:22;3.20;;;1.70;;
549;SDS011;20066;48.764;9.176;2022-12-29T08:05:51;7.10;;;1.50;;
549;SDS011;20066;48.764;9.176;2022-12-29T08:08:20;2.30;;;1.20;;
549;SDS011;20066;48.764;9.176;2022-12-29T08:10:47;3.67;;;1.47;;
549;SDS011;20066;48.764;9.176;2022-12-29T08:13:17;5.33;;;1.63;;
549;SDS011;20066;48.764;9.176;2022-12-29T08:15:44;2.30;;;1.27;;
549;SDS011;20066;48.764;9.176;2022-12-29T08:18:12;9.00;;;1.60;;
549;SDS011;20066;48.764;9.176;2022-12-29T08:20:40;2.70;;;1.60;;
549;SDS011;20066;48.764;9.176;2022-12-29T08:23:08;3.03;;;1.50;;
549;SDS011;20066;48.764;9.176;2022-12-29T08:25:35;2.90;;;1.57;;
549;SDS011;20066;48.764;9.176;2022-12-29T08:28:03;5.30;;;1.70;;
549;SDS011;20066;48.764;9.176;2022-12-29T08:30:32;3.17;;;1.60;;
549;SDS011;20066;48.764;9.176;2022-12-29T08:33:01;5.60;;;1.83;;
549;SDS011;20066;48.764;9.176;2022-12-29T08:35:29;4.13;;;1.90;;
549;SDS011;20066;48.764;9.176;2022-12-29T08:37:57;3.53;;;1.60;;
549;SDS011;20066;48.764;9.176;2022-12-29T08:40:24;3.20;;;1.60;;
549;SDS011;20066;48.764;9.176;2022-12-29T08:42:53;4.67;;;1.70;;
549;SDS011;20066;48.764;9.176;2022-12-29T08:45:22;5.30;;;1.63;;
549;SDS011;20066;48.764;9.176;2022-12-29T08:47:51;3.60;;;1.50;;
549;SDS011;20066;48.764;9.176;2022-12-29T08:50:18;5.50;;;1.67;;
549;SDS011;20066;48.764;9.176;2022-12-29T08:52:46;3.80;;;1.60;;
549;SDS011;20066;48.764;9.176;2022-12-29T08:55:14;4.40;;;1.50;;
549;SDS011;20066;48.764;9.176;2022-12-29T08:57:42;3.07;;;1.80;;
549;SDS011;20066;48.764;9.176;2022-12-29T09:00:10;6.00;;;1.87;;
549;SDS011;20066;48.764;9.176;2022-12-29T09:02:38;3.37;;;1.60;;
549;SDS011;20066;48.764;9.176;2022-12-29T09:05:08;18.80;;;1.80;;
549;SDS011;20066;48.764;9.176;2022-12-29T09:07:36;4.63;;;1.40;;
549;SDS011;20066;48.764;9.176;2022-12-29T09:10:04;3.00;;;1.60;;
549;SDS011;20066;48.764;9.176;2022-12-29T09:12:32;6.30;;;1.50;;
549;SDS011;20066;48.764;9.176;2022-12-29T09:15:02;4.63;;;1.80;;
549;SDS011;20066;48.764;9.176;2022-12-29T09:17:30;2.57;;;1.23;;
549;SDS011;20066;48.764;9.176;2022-12-29T09:20:16;7.47;;;2.00;;
549;SDS011;20066;48.764;9.176;2022-12-29T09:22:45;4.63;;;1.60;;
549;SDS011;20066;48.764;9.176;2022-12-29T09:25:13;5.40;;;1.70;;
549;SDS011;20066;48.764;9.176;2022-12-29T09:27:42;2.50;;;1.40;;
549;SDS011;20066;48.764;9.176;2022-12-29T09:30:10;2.57;;;1.30;;
549;SDS011;20066;48.764;9.176;2022-12-29T09:32:40;2.90;;;1.43;;
549;SDS011;20066;48.764;9.176;2022-12-29T09:35:11;5.93;;;1.17;;
549;SDS011;20066;48.764;9.176;2022-12-29T09:37:41;4.63;;;1.43;;
549;SDS011;20066;48.764;9.176;2022-12-29T09:40:10;2.80;;;1.10;;
549;SDS011;20066;48.764;9.176;2022-12-29T09:42:55;3.80;;;1.40;;
549;SDS011;20066;48.764;9.176;2022-12-29T09:45:32;4.30;;;1.70;;
549;SDS011;20066;48.764;9.176;2022-12-29T09:48:03;2.40;;;1.00;;
549;SDS011;20066;48.764;9.176;2022-12-29T09:50:39;4.50;;;1.80;;
549;SDS011;20066;48.764;9.176;2022-12-29T09:53:14;9.00;;;1.60;;
549;SDS011;20066;48.764;9.176;2022-12-29T09:55:47;3.90;;;1.10;;
549;SDS011;20066;48.764;9.176;2022-12-29T09:58:19;2.57;;;1.47;;
549;SDS011;20066;48.764;9.176;2022-12-29T10:00:54;3.23;;;1.10;;
549;SDS011;20066;48.764;9.176;2022-12-29T10:03:28;3.97;;;1.60;;
549;SDS011;20066;48.764;9.176;2022-12-29T10:06:09;3.50;;;1.50;;
549;SDS011;20066;48.764;9.176;2022-12-29T10:08:44;7.10;;;2.10;;
549;SDS011;20066;48.764;9.176;2022-12-29T10:11:20;3.70;;;1.90;;
549;SDS011;20066;48.764;9.176;2022-12-29T10:14:04;2.67;;;1.40;;
549;SDS011;20066;48.764;9.176;2022-12-29T10:16:43;4.57;;;1.83;;
549;SDS011;20066;48.764;9.176;2022-12-29T10:19:30;5.47;;;1.83;;
549;SDS011;20066;48.764;9.176;2022-12-29T10:22:09;3.63;;;1.67;;
549;SDS011;20066;48.764;9.176;2022-12-29T10:24:48;4.23;;;1.20;;
549;SDS011;20066;48.764;9.176;2022-12-29T10:27:22;2.27;;;1.40;;
549;SDS011;20066;48.764;9.176;2022-12-29T10:29:52;6.60;;;1.27;;
549;SDS011;20066;48.764;9.176;2022-12-29T10:32:24;13.17;;;1.80;;
549;SDS011;20066;48.764;9.176;2022-12-29T10:34:57;5.70;;;1.67;;
549;SDS011;20066;48.764;9.176;2022-12-29T10:37:32;3.63;;;1.83;;
549;SDS011;20066;48.764;9.176;2022-12-29T10:40:17;3.33;;;1.10;;
549;SDS011;20066;48.764;9.176;2022-12-29T10:42:52;3.70;;;1.70;;
549;SDS011;20066;48.764;9.176;2022-12-29T10:45:22;4.07;;;1.67;;
549;SDS011;20066;48.764;9.176;2022-12-29T10:47:55;3.80;;;1.47;;
549;SDS011;20066;48.764;9.176;2022-12-29T10:50:27;3.00;;;1.63;;
549;SDS011;20066;48.764;9.176;2022-12-29T10:52:57;7.50;;;1.40;;
549;SDS011;20066;48.764;9.176;2022-12-29T10:55:30;3.97;;;1.57;;
549;SDS011;20066;48.764;9.176;2022-12-29T10:58:01;4.70;;;1.50;;
549;SDS011;20066;48.764;9.176;2022-12-29T11:00:32;6.33;;;1.37;;
549;SDS011;20066;48.764;9.176;2022-12-29T11:03:08;4.40;;;1.50;;
549;SDS011;20066;48.764;9.176;2022-12-29T11:05:49;3.70;;;1.30;;
549;SDS011;20066;48.764;9.176;2022-12-29T11:08:24;10.83;;;1.80;;
549;SDS011;20066;48.764;9.176;2022-12-29T11:10:59;2.90;;;1.20;;
549;SDS011;20066;48.764;9.176;2022-12-29T11:13:28;4.20;;;1.40;;
549;SDS011;20066;48.764;9.176;2022-12-29T11:16:04;2.30;;;1.30;;
549;SDS011;20066;48.764;9.176;2022-12-29T11:18:33;3.23;;;1.50;;
549;SDS011;20066;48.764;9.176;2022-12-29T11:21:04;21.97;;;3.40;;
549;SDS011;20066;48.764;9.176;2022-12-29T11:23:34;7.73;;;3.60;;
549;SDS011;20066;48.764;9.176;2022-12-29T11:26:12;13.10;;;3.00;;
549;SDS011;20066;48.764;9.176;2022-12-29T11:28:43;25.87;;;3.30;;
549;SDS011;20066;48.764;9.176;2022-12-29T11:31:15;18.73;;;3.90;;
549;SDS011;20066;48.764;9.176;2022-12-29T11:33:44;9.63;;;3.17;;
549;SDS011;20066;48.764;9.176;2022-12-29T11:36:13;12.43;;;3.00;;
549;SDS011;20066;48.764;9.176;2022-12-29T11:38:46;8.87;;;3.40;;
549;SDS011;20066;48.764;9.176;2022-12-29T11:41:20;8.20;;;3.20;;
549;SDS011;20066;48.764;9.176;2022-12-29T11:43:51;15.00;;;4.07;;
549;SDS011;20066;48.764;9.176;2022-12-29T11:46:21;9.83;;;2.80;;
549;SDS011;20066;48.764;9.176;2022-12-29T11:48:52;13.30;;;3.80;;
549;SDS011;20066;48.764;9.176;2022-12-29T11:51:25;12.17;;;3.23;;
549;SDS011;20066;48.764;9.176;2022-12-29T11:53:56;18.80;;;4.33;;
549;SDS011;20066;48.764;9.176;2022-12-29T11:56:33;12.37;;;3.30;;
549;SDS011;20066;48.764;9.176;2022-12-29T12:02:18;11.40;;;2.87;;
549;SDS011;20066;48.764;9.176;2022-12-29T12:05:12;12.37;;;3.53;;
549;SDS011;20066;48.764;9.176;2022-12-29T12:07:49;12.80;;;3.17;;
549;SDS011;20066;48.764;9.176;2022-12-29T12:10:21;7.50;;;2.73;;
549;SDS011;20066;48.764;9.176;2022-12-29T12:12:56;6.93;;;2.90;;
549;SDS011;20066;48.764;9.176;2022-12-29T12:15:30;6.23;;;3.00;;
549;SDS011;20066;48.764;9.176;2022-12-29T12:18:12;6.67;;;3.60;;
549;SDS011;20066;48.764;9.176;2022-12-29T12:20:48;6.50;;;2.33;;
549;SDS011;20066;48.764;9.176;2022-12-29T12:23:30;6.10;;;2.07;;
549;SDS011;20066;48.764;9.176;2022-12-29T12:26:05;4.20;;;2.40;;
549;SDS011;20066;48.764;9.176;2022-12-29T12:28:42;2.77;;;1.90;;
549;SDS011;20066;48.764;9.176;2022-12-29T12:31:17;4.23;;;1.80;;
549;SDS011;20066;48.764;9.176;2022-12-29T12:33:56;7.07;;;2.20;;
549;SDS011;20066;48.764;9.176;2022-12-29T12:36:32;5.03;;;1.50;;
549;SDS011;20066;48.764;9.176;2022-12-29T12:39:18;4.43;;;1.90;;
549;SDS011;20066;48.764;9.176;2022-12-29T12:41:56;7.33;;;2.20;;
549;SDS011;20066;48.764;9.176;2022-12-29T12:44:36;4.23;;;2.10;;
549;SDS011;20066;48.764;9.176;2022-12-29T12:47:21;9.10;;;2.97;;
549;SDS011;20066;48.764;9.176;2022-12-29T12:53:02;29.67;;;6.10;;
549;SDS011;20066;48.764;9.176;2022-12-29T12:55:47;25.50;;;4.50;;
549;SDS011;20066;48.764;9.176;2022-12-29T12:58:26;8.80;;;2.60;;
549;SDS011;20066;48.764;9.176;2022-12-29T13:01:06;5.73;;;2.97;;
549;SDS011;20066;48.764;9.176;2022-12-29T13:03:50;5.53;;;2.70;;
549;SDS011;20066;48.764;9.176;2022-12-29T13:06:32;2.60;;;1.80;;
549;SDS011;20066;48.764;9.176;2022-12-29T13:09:15;3.30;;;2.10;;
549;SDS011;20066;48.764;9.176;2022-12-29T13:12:03;3.83;;;2.73;;
549;SDS011;20066;48.764;9.176;2022-12-29T13:14:41;4.53;;;2.73;;
549;SDS011;20066;48.764;9.176;2022-12-29T13:17:21;2.90;;;1.70;;
549;SDS011;20066;48.764;9.176;2022-12-29T13:19:57;18.07;;;4.80;;
549;SDS011;20066;48.764;9.176;2022-12-29T13:22:29;4.30;;;2.10;;
549;SDS011;20066;48.764;9.176;2022-12-29T13:25:15;4.80;;;2.37;;
549;SDS011;20066;48.764;9.176;2022-12-29T13:27:51;5.53;;;2.63;;
549;SDS011;20066;48.764;9.176;2022-12-29T13:30:28;10.00;;;3.50;;
549;SDS011;20066;48.764;9.176;2022-12-29T13:33:03;12.40;;;4.10;;
549;SDS011;20066;48.764;9.176;2022-12-29T13:35:58;7.13;;;2.73;;
549;SDS011;20066;48.764;9.176;2022-12-29T13:38:30;14.53;;;4.10;;
549;SDS011;20066;48.764;9.176;2022-12-29T13:41:04;7.53;;;3.10;;
549;SDS011;20066;48.764;9.176;2022-12-29T13:43:35;7.23;;;3.43;;
549;SDS011;20066;48.764;9.176;2022-12-29T13:46:07;15.77;;;5.00;;
549;SDS011;20066;48.764;9.176;2022-12-29T13:48:43;10.37;;;3.40;;
549;SDS011;20066;48.764;9.176;2022-12-29T13:51:15;8.50;;;3.07;;
549;SDS011;20066;48.764;9.176;2022-12-29T13:53:56;14.30;;;3.57;;
549;SDS011;20066;48.764;9.176;2022-12-29T13:56:32;22.37;;;5.03;;
549;SDS011;20066;48.764;9.176;2022-12-29T13:59:07;10.33;;;4.00;;
549;SDS011;20066;48.764;9.176;2022-12-29T14:01:46;10.97;;;3.50;;
549;SDS011;20066;48.764;9.176;2022-12-29T14:04:23;10.47;;;3.50;;
549;SDS011;20066;48.764;9.176;2022-12-29T14:07:00;6.23;;;2.70;;
549;SDS011;20066;48.764;9.176;2022-12-29T14:09:41;6.90;;;2.60;;
549;SDS011;20066;48.764;9.176;2022-12-29T14:15:13;8.40;;;2.83;;
549;SDS011;20066;48.764;9.176;2022-12-29T14:18:00;5.23;;;2.83;;
549;SDS011;20066;48.764;9.176;2022-12-29T14:20:33;6.30;;;2.37;;
549;SDS011;20066;48.764;9.176;2022-12-29T14:23:01;4.60;;;2.70;;
549;SDS011;20066;48.764;9.176;2022-12-29T14:25:56;4.87;;;2.70;;
549;SDS011;20066;48.764;9.176;2022-12-29T14:28:26;4.63;;;2.90;;
549;SDS011;20066;48.764;9.176;2022-12-29T14:30:55;7.27;;;3.43;;
549;SDS011;20066;48.764;9.176;2022-12-29T14:33:25;4.07;;;2.10;;
549;SDS011;20066;48.764;9.176;2022-12-29T14:35:56;4.70;;;3.10;;
549;SDS011;20066;48.764;9.176;2022-12-29T14:38:48;5.63;;;3.00;;
549;SDS011;20066;48.764;9.176;2022-12-29T14:41:26;6.37;;;2.73;;
549;SDS011;20066;48.764;9.176;2022-12-29T14:43:58;6.60;;;2.90;;
549;SDS011;20066;48.764;9.176;2022-12-29T14:49:16;4.20;;;2.13;;
549;SDS011;20066;48.764;9.176;2022-12-29T14:51:49;5.90;;;2.30;;
549;SDS011;20066;48.764;9.176;2022-12-29T14:54:43;4.50;;;2.30;;
549;SDS011;20066;48.764;9.176;2022-12-29T14:57:34;6.30;;;3.10;;
549;SDS011;20066;48.764;9.176;2022-12-29T15:00:18;6.63;;;3.10;;
549;SDS011;20066;48.764;9.176;2022-12-29T15:02:50;4.80;;;2.23;;
549;SDS011;20066;48.764;9.176;2022-12-29T15:05:30;7.23;;;3.83;;
549;SDS011;20066;48.764;9.176;2022-12-29T15:08:02;4.03;;;2.63;;
549;SDS011;20066;48.764;9.176;2022-12-29T15:10:34;8.60;;;3.17;;
549;SDS011;20066;48.764;9.176;2022-12-29T15:13:12;4.23;;;2.47;;
549;SDS011;20066;48.764;9.176;2022-12-29T15:15:42;8.33;;;3.60;;
549;SDS011;20066;48.764;9.176;2022-12-29T15:18:12;9.43;;;4.23;;
549;SDS011;20066;48.764;9.176;2022-12-29T15:20:42;11.20;;;4.37;;
549;SDS011;20066;48.764;9.176;2022-12-29T15:23:12;5.03;;;2.90;;
549;SDS011;20066;48.764;9.176;2022-12-29T15:25:45;6.13;;;3.13;;
549;SDS011;20066;48.764;9.176;2022-12-29T15:28:15;7.43;;;3.03;;
549;SDS011;20066;48.764;9.176;2022-12-29T15:30:50;8.00;;;4.63;;
549;SDS011;20066;48.764;9.176;2022-12-29T15:33:19;10.80;;;4.50;;
549;SDS011;20066;48.764;9.176;2022-12-29T15:35:49;5.73;;;3.47;;
549;SDS011;20066;48.764;9.176;2022-12-29T15:38:22;5.50;;;3.00;;
549;SDS011;20066;48.764;9.176;2022-12-29T15:41:00;6.10;;;3.33;;
549;SDS011;20066;48.764;9.176;2022-12-29T15:43:39;4.70;;;2.77;;
549;SDS011;20066;48.764;9.176;2022-12-29T15:46:18;6.00;;;3.40;;
549;SDS011;20066;48.764;9.176;2022-12-29T15:48:46;5.23;;;2.53;;
549;SDS011;20066;48.764;9.176;2022-12-29T15:51:17;5.63;;;2.37;;
549;SDS011;20066;48.764;9.176;2022-12-29T15:53:49;4.50;;;1.77;;
549;SDS011;20066;48.764;9.176;2022-12-29T15:56:19;5.20;;;2.17;;
549;SDS011;20066;48.764;9.176;2022-12-29T15:58:47;8.03;;;2.60;;
549;SDS011;20066;48.764;9.176;2022-12-29T16:01:17;3.10;;;2.00;;
549;SDS011;20066;48.764;9.176;2022-12-29T16:03:46;7.50;;;2.07;;
549;SDS011;20066;48.764;9.176;2022-12-29T16:06:30;4.93;;;2.30;;
549;SDS011;20066;48.764;9.176;2022-12-29T16:09:02;3.10;;;2.00;;
549;SDS011;20066;48.764;9.176;2022-12-29T16:11:32;2.20;;;1.50;;